createdAt,value
2023-10-11T00:00:58.416Z,17.48
2023-10-11T00:03:25.889Z,17.23
2023-10-11T00:05:54.548Z,18.10
2023-10-11T00:08:28.071Z,17.25
2023-10-11T00:10:59.323Z,17.75
2023-10-11T00:13:35.139Z,17.38
2023-10-11T00:16:10.649Z,16.80
2023-10-11T00:18:40.367Z,17.45
2023-10-11T00:21:19.894Z,17.77
2023-10-11T00:23:52.272Z,17.73
2023-10-11T00:26:20.109Z,17.60
2023-10-11T00:28:47.402Z,17.80
2023-10-11T00:31:20.599Z,17.25
2023-10-11T00:33:49.149Z,18.50
2023-10-11T00:36:18.215Z,18.33
2023-10-11T00:38:54.618Z,17.38
2023-10-11T00:41:23.018Z,16.95
2023-10-11T00:43:53.131Z,17.15
2023-10-11T00:46:24.165Z,17.58
2023-10-11T00:49:09.329Z,17.02
2023-10-11T00:51:38.378Z,17.35
2023-10-11T00:54:06.920Z,17.50
2023-10-11T00:56:34.356Z,17.20
2023-10-11T00:59:02.222Z,16.98
2023-10-11T01:01:29.550Z,17.90
2023-10-11T01:03:57.871Z,17.70
2023-10-11T01:06:27.045Z,17.48
2023-10-11T01:08:55.812Z,17.45
2023-10-11T01:11:23.703Z,16.83
2023-10-11T01:13:53.981Z,17.55
2023-10-11T01:16:29.622Z,16.92
2023-10-11T01:18:56.756Z,17.25
2023-10-11T01:21:23.758Z,17.05
2023-10-11T01:23:51.037Z,16.85
2023-10-11T01:26:18.741Z,16.90
2023-10-11T01:28:52.556Z,16.52
2023-10-11T01:31:19.686Z,16.77
2023-10-11T01:33:51.078Z,16.15
2023-10-11T01:36:22.966Z,16.88
2023-10-11T01:38:50.909Z,16.75
2023-10-11T01:41:28.538Z,16.73
2023-10-11T01:43:57.493Z,16.45
2023-10-11T01:46:28.522Z,16.77
2023-10-11T01:48:57.239Z,17.05
2023-10-11T01:51:28.095Z,17.40
2023-10-11T01:54:13.141Z,17.05
2023-10-11T01:59:08.979Z,16.52
2023-10-11T02:01:43.037Z,16.73
2023-10-11T02:04:19.254Z,15.93
2023-10-11T02:06:50.183Z,16.42
2023-10-11T02:09:23.306Z,16.10
2023-10-11T02:11:54.587Z,16.15
2023-10-11T02:14:25.213Z,15.63
2023-10-11T02:16:57.056Z,16.10
2023-10-11T02:19:24.789Z,16.15
2023-10-11T02:21:54.784Z,16.23
2023-10-11T02:24:22.015Z,16.38
2023-10-11T02:26:56.234Z,15.50
2023-10-11T02:29:25.169Z,16.27
2023-10-11T02:31:54.036Z,16.45
2023-10-11T02:34:22.006Z,15.98
2023-10-11T02:36:58.290Z,15.25
2023-10-11T02:39:35.775Z,16.85
2023-10-11T02:42:06.634Z,16.45
2023-10-11T02:44:34.154Z,16.02
2023-10-11T02:47:01.216Z,16.20
2023-10-11T02:49:33.428Z,15.95
2023-10-11T02:52:08.136Z,15.75
2023-10-11T02:54:39.996Z,16.45
2023-10-11T02:57:08.254Z,15.73
2023-10-11T02:59:35.403Z,15.90
2023-10-11T03:02:03.058Z,15.82
2023-10-11T03:04:34.249Z,15.95
2023-10-11T03:07:03.972Z,15.95
2023-10-11T03:09:34.602Z,16.52
2023-10-11T03:12:19.438Z,16.58
2023-10-11T03:14:48.792Z,16.13
2023-10-11T03:17:16.952Z,16.23
2023-10-11T03:19:44.866Z,16.17
2023-10-11T03:22:20.968Z,15.80
2023-10-11T03:25:03.369Z,15.13
2023-10-11T03:27:37.590Z,15.55
2023-10-11T03:30:05.260Z,15.23
2023-10-11T03:32:33.073Z,16.02
2023-10-11T03:35:00.361Z,16.17
2023-10-11T03:37:29.878Z,15.57
2023-10-11T03:39:58.709Z,16.45
2023-10-11T03:42:45.144Z,16.15
2023-10-11T03:45:12.643Z,15.98
2023-10-11T03:47:39.952Z,16.15
2023-10-11T03:50:08.320Z,17.00
2023-10-11T03:52:35.469Z,16.40
2023-10-11T03:55:13.361Z,16.80
2023-10-11T03:57:44.722Z,16.30
2023-10-11T04:00:27.307Z,16.65
2023-10-11T04:03:05.323Z,15.93
2023-10-11T04:05:36.564Z,15.93
2023-10-11T04:08:07.504Z,16.75
2023-10-11T04:10:43.934Z,16.17
2023-10-11T04:13:17.010Z,16.83
2023-10-11T04:15:50.656Z,16.73
2023-10-11T04:18:30.207Z,16.75
2023-10-11T04:21:12.405Z,16.23
2023-10-11T04:23:41.025Z,16.27
2023-10-11T04:26:09.865Z,16.17
2023-10-11T04:28:42.994Z,16.25
2023-10-11T04:31:39.286Z,16.87
2023-10-11T04:34:16.962Z,16.70
2023-10-11T04:36:43.995Z,17.00
2023-10-11T04:39:20.998Z,16.92
2023-10-11T04:41:52.547Z,16.02
2023-10-11T04:44:19.926Z,16.52
2023-10-11T04:46:58.942Z,16.58
2023-10-11T04:49:27.163Z,16.50
2023-10-11T04:51:58.018Z,16.10
2023-10-11T04:54:43.541Z,16.67
2023-10-11T04:57:18.775Z,17.38
2023-10-11T04:59:49.918Z,19.52
2023-10-11T05:02:30.042Z,19.45
2023-10-11T05:04:58.052Z,18.95
2023-10-11T05:07:26.724Z,18.58
2023-10-11T05:10:22.889Z,17.85
2023-10-11T05:13:05.408Z,16.83
2023-10-11T05:15:43.615Z,16.92
2023-10-11T05:18:11.271Z,16.88
2023-10-11T05:20:58.439Z,16.85
2023-10-11T05:23:43.144Z,16.65
2023-10-11T05:26:29.304Z,16.98
2023-10-11T05:29:24.607Z,17.27
2023-10-11T05:32:15.440Z,16.35
2023-10-11T05:35:18.061Z,17.63
2023-10-11T05:38:03.346Z,17.83
2023-10-11T05:40:49.144Z,17.92
2023-10-11T05:43:36.500Z,17.27
2023-10-11T05:46:22.228Z,18.27
2023-10-11T05:49:08.047Z,18.58
2023-10-11T05:51:41.224Z,18.15
2023-10-11T05:54:10.066Z,17.48
2023-10-11T05:56:47.264Z,17.70
2023-10-11T05:59:15.825Z,17.25
2023-10-11T06:01:45.956Z,17.50
2023-10-11T06:04:15.526Z,17.20
2023-10-11T06:06:44.071Z,16.65
2023-10-11T06:09:20.222Z,17.25
2023-10-11T06:11:51.590Z,16.70
2023-10-11T06:14:19.976Z,15.80
2023-10-11T06:16:59.124Z,15.70
2023-10-11T06:19:30.853Z,15.82
2023-10-11T06:21:58.839Z,15.80
2023-10-11T06:24:38.421Z,15.88
2023-10-11T06:27:26.327Z,16.33
2023-10-11T06:29:56.296Z,16.35
2023-10-11T06:32:25.031Z,16.23
2023-10-11T06:34:53.366Z,16.00
2023-10-11T06:37:26.710Z,16.58
2023-10-11T06:39:56.778Z,16.10
2023-10-11T06:42:24.989Z,15.45
2023-10-11T06:45:00.994Z,16.10
2023-10-11T06:47:36.690Z,15.27
2023-10-11T06:50:12.081Z,16.25
2023-10-11T06:52:46.842Z,16.13
2023-10-11T06:55:17.259Z,16.38
2023-10-11T06:57:56.590Z,16.75
2023-10-11T07:00:27.098Z,15.93
2023-10-11T07:03:09.365Z,15.82
2023-10-11T07:05:50.673Z,16.33
2023-10-11T07:08:22.056Z,16.65
2023-10-11T07:11:10.038Z,15.63
2023-10-11T07:13:58.526Z,16.23
2023-10-11T07:16:29.146Z,15.95
2023-10-11T07:18:58.654Z,15.40
2023-10-11T07:21:46.072Z,16.98
2023-10-11T07:24:31.903Z,16.27
2023-10-11T07:27:09.255Z,15.95
2023-10-11T07:29:38.657Z,16.58
2023-10-11T07:32:11.284Z,16.27
2023-10-11T07:34:40.642Z,16.52
2023-10-11T07:37:07.748Z,16.08
2023-10-11T07:39:35.835Z,16.67
2023-10-11T07:42:10.428Z,16.48
2023-10-11T07:44:39.026Z,16.20
2023-10-11T07:47:20.119Z,16.50
2023-10-11T07:49:47.316Z,16.55
2023-10-11T07:52:21.464Z,16.38
2023-10-11T07:54:51.837Z,16.10
2023-10-11T07:57:21.203Z,16.48
2023-10-11T07:59:52.707Z,16.00
2023-10-11T08:02:31.134Z,16.83
2023-10-11T08:04:59.873Z,16.35
2023-10-11T08:07:27.527Z,16.35
2023-10-11T08:09:54.557Z,16.50
2023-10-11T08:12:26.363Z,16.00
2023-10-11T08:14:55.224Z,17.23
2023-10-11T08:17:23.112Z,16.42
2023-10-11T08:19:55.606Z,16.00
2023-10-11T08:22:26.671Z,16.65
2023-10-11T08:25:00.657Z,16.45
2023-10-11T08:30:31.954Z,15.98
2023-10-11T08:32:59.049Z,16.70
2023-10-11T08:35:33.190Z,16.30
2023-10-11T08:38:07.367Z,16.45
2023-10-11T08:40:38.517Z,15.93
2023-10-11T08:43:08.163Z,16.42
2023-10-11T08:45:48.478Z,16.50
2023-10-11T08:48:16.613Z,16.40
2023-10-11T08:51:01.576Z,16.63
2023-10-11T08:53:33.732Z,16.88
2023-10-11T08:56:01.293Z,16.73
2023-10-11T08:58:31.551Z,16.42
2023-10-11T09:01:01.593Z,16.83
2023-10-11T09:03:41.286Z,17.73
2023-10-11T09:06:23.073Z,16.92
2023-10-11T09:08:52.668Z,17.00
2023-10-11T09:11:34.938Z,16.83
2023-10-11T09:14:25.072Z,16.70
2023-10-11T09:16:58.859Z,16.75
2023-10-11T09:19:29.484Z,17.48
2023-10-11T09:22:05.549Z,16.38
2023-10-11T09:24:44.971Z,16.85
2023-10-11T09:27:12.813Z,16.77
2023-10-11T09:29:40.501Z,16.35
2023-10-11T09:32:07.620Z,16.63
2023-10-11T09:34:36.151Z,17.08
2023-10-11T09:37:03.702Z,15.73
2023-10-11T09:39:31.703Z,17.00
2023-10-11T09:42:05.950Z,16.75
2023-10-11T09:44:41.447Z,16.67
2023-10-11T09:47:18.326Z,18.05
2023-10-11T09:49:48.490Z,17.27
2023-10-11T09:52:25.097Z,16.75
2023-10-11T09:54:53.162Z,16.63
2023-10-11T09:57:52.142Z,16.95
2023-10-11T10:00:42.300Z,16.77
2023-10-11T10:03:14.988Z,16.65
2023-10-11T10:06:07.397Z,16.98
2023-10-11T10:08:34.830Z,17.05
2023-10-11T10:11:03.690Z,17.60
2023-10-11T10:13:51.333Z,17.33
2023-10-11T10:16:18.637Z,17.52
2023-10-11T10:18:48.469Z,17.50
2023-10-11T10:21:19.191Z,17.52
2023-10-11T10:23:46.386Z,17.23
2023-10-11T10:26:14.480Z,17.15
2023-10-11T10:28:43.110Z,17.33
2023-10-11T10:31:13.293Z,17.33
2023-10-11T10:33:53.032Z,18.15
2023-10-11T10:36:23.268Z,18.55
2023-10-11T10:38:59.925Z,17.15
2023-10-11T10:41:33.091Z,17.15
2023-10-11T10:44:13.378Z,16.37
2023-10-11T10:46:53.921Z,17.15
2023-10-11T10:49:23.087Z,17.17
2023-10-11T10:51:50.199Z,16.38
2023-10-11T10:54:24.501Z,16.77
2023-10-11T10:56:55.820Z,17.48
2023-10-11T10:59:26.394Z,16.95
2023-10-11T11:01:54.478Z,17.00
2023-10-11T11:04:30.362Z,18.15
2023-10-11T11:06:57.894Z,17.52
2023-10-11T11:09:28.205Z,18.02
2023-10-11T11:12:11.736Z,17.02
2023-10-11T11:14:38.792Z,17.73
2023-10-11T11:17:10.651Z,17.63
2023-10-11T11:19:37.969Z,17.88
2023-10-11T11:22:16.513Z,17.95
2023-10-11T11:24:44.633Z,17.60
2023-10-11T11:27:21.802Z,17.80
2023-10-11T11:29:49.570Z,17.40
2023-10-11T11:32:18.902Z,17.45
2023-10-11T11:35:11.288Z,17.35
2023-10-11T11:38:03.540Z,16.92
2023-10-11T11:40:37.951Z,17.65
2023-10-11T11:43:05.830Z,16.70
2023-10-11T11:45:37.197Z,16.42
2023-10-11T11:48:06.634Z,18.15
2023-10-11T11:50:34.907Z,17.42
2023-10-11T11:53:04.505Z,18.30
2023-10-11T11:55:34.277Z,17.45
2023-10-11T11:58:01.714Z,17.73
2023-10-11T12:00:40.082Z,18.00
2023-10-11T12:03:10.645Z,17.95
2023-10-11T12:05:43.868Z,17.67
2023-10-11T12:08:21.773Z,17.83
2023-10-11T12:10:51.567Z,18.15
2023-10-11T12:13:24.627Z,18.00
2023-10-11T12:15:58.334Z,17.90
2023-10-11T12:18:37.778Z,17.70
2023-10-11T12:21:12.710Z,18.08
2023-10-11T12:23:48.162Z,17.15
2023-10-11T12:26:19.573Z,17.45
2023-10-11T12:28:47.067Z,17.30
2023-10-11T12:31:14.371Z,17.65
2023-10-11T12:33:41.636Z,17.08
2023-10-11T12:36:09.209Z,17.10
2023-10-11T12:38:41.074Z,17.15
2023-10-11T12:41:15.516Z,17.25
2023-10-11T12:43:42.846Z,16.95
2023-10-11T12:46:12.719Z,17.80
2023-10-11T12:48:42.158Z,17.98
2023-10-11T12:51:09.375Z,17.10
2023-10-11T12:53:36.557Z,17.05
2023-10-11T12:56:04.262Z,17.38
2023-10-11T12:58:40.799Z,17.17
2023-10-11T13:01:13.309Z,17.60
2023-10-11T13:03:42.165Z,17.58
2023-10-11T13:06:12.119Z,18.13
2023-10-11T13:08:39.476Z,18.05
2023-10-11T13:11:13.306Z,17.98
2023-10-11T13:13:42.260Z,17.52
2023-10-11T13:16:10.043Z,18.33
2023-10-11T13:18:38.984Z,17.80
2023-10-11T13:21:12.623Z,17.90
2023-10-11T13:23:44.990Z,17.30
2023-10-11T13:26:19.707Z,17.00
2023-10-11T13:28:54.496Z,17.33
2023-10-11T13:31:23.576Z,18.13
2023-10-11T13:33:54.755Z,16.58
2023-10-11T13:36:23.114Z,16.48
2023-10-11T13:38:50.262Z,17.05
2023-10-11T13:41:17.591Z,16.08
2023-10-11T13:43:46.206Z,16.83
2023-10-11T13:46:15.438Z,16.90
2023-10-11T13:48:42.979Z,16.92
2023-10-11T13:51:19.254Z,16.58
2023-10-11T13:53:52.650Z,16.88
2023-10-11T13:56:24.960Z,17.17
2023-10-11T13:58:55.354Z,17.20
2023-10-11T14:02:01.847Z,16.90
2023-10-11T14:04:48.367Z,17.45
2023-10-11T14:07:34.872Z,16.40
2023-10-11T14:10:15.373Z,16.52
2023-10-11T14:12:43.154Z,16.80
2023-10-11T14:15:19.940Z,17.35
2023-10-11T14:17:54.534Z,16.90
2023-10-11T14:20:23.342Z,17.08
2023-10-11T14:22:51.200Z,16.48
2023-10-11T14:25:21.557Z,17.27
2023-10-11T14:27:48.970Z,17.15
2023-10-11T14:30:16.800Z,16.88
2023-10-11T14:32:48.275Z,16.08
2023-10-11T14:35:18.295Z,16.83
2023-10-11T14:37:45.990Z,16.65
2023-10-11T14:40:17.298Z,16.80
2023-10-11T14:42:46.292Z,16.42
2023-10-11T14:45:15.953Z,17.02
2023-10-11T14:47:47.156Z,16.48
2023-10-11T14:50:15.272Z,17.20
2023-10-11T14:52:45.330Z,17.00
2023-10-11T14:55:21.551Z,16.67
2023-10-11T14:57:52.126Z,16.73
2023-10-11T15:00:24.398Z,16.25
2023-10-11T15:02:52.835Z,16.38
2023-10-11T15:05:20.816Z,17.00
2023-10-11T15:07:49.946Z,16.83
2023-10-11T15:10:18.607Z,17.02
2023-10-11T15:12:45.847Z,16.75
2023-10-11T15:15:17.038Z,16.10
2023-10-11T15:17:45.575Z,16.55
2023-10-11T15:20:13.001Z,17.10
2023-10-11T15:22:53.223Z,16.50
2023-10-11T15:25:22.767Z,16.52
2023-10-11T15:27:51.250Z,16.55
2023-10-11T15:30:18.294Z,16.52
2023-10-11T15:32:45.436Z,16.55
2023-10-11T15:35:15.752Z,17.40
2023-10-11T15:37:46.724Z,16.80
2023-10-11T15:40:14.764Z,16.63
2023-10-11T15:42:43.201Z,16.70
2023-10-11T15:45:10.963Z,16.75
2023-10-11T15:47:39.186Z,16.33
2023-10-11T15:50:06.821Z,16.45
2023-10-11T15:52:33.805Z,15.93
2023-10-11T15:55:00.818Z,15.73
2023-10-11T15:57:28.010Z,15.95
2023-10-11T15:59:55.047Z,16.02
2023-10-11T16:02:23.512Z,15.52
2023-10-11T16:04:51.105Z,16.45
2023-10-11T16:07:18.158Z,15.52
2023-10-11T16:09:45.208Z,15.45
2023-10-11T16:12:13.528Z,15.48
2023-10-11T16:14:42.936Z,15.23
2023-10-11T16:17:11.008Z,15.80
2023-10-11T16:19:42.102Z,15.63
2023-10-11T16:22:09.881Z,15.30
2023-10-11T16:24:39.053Z,15.68
2023-10-11T16:27:07.603Z,15.68
2023-10-11T16:29:36.245Z,15.90
2023-10-11T16:32:03.333Z,15.23
2023-10-11T16:34:30.370Z,15.82
2023-10-11T16:36:57.344Z,15.93
2023-10-11T16:39:35.393Z,16.00
2023-10-11T16:42:03.883Z,15.63
2023-10-11T16:44:32.152Z,14.93
2023-10-11T16:46:59.279Z,14.93
2023-10-11T16:49:26.285Z,15.30
2023-10-11T16:51:53.363Z,15.40
2023-10-11T16:54:21.639Z,15.20
2023-10-11T16:56:48.882Z,15.10
2023-10-11T16:59:16.010Z,15.00
2023-10-11T17:01:45.973Z,15.00
2023-10-11T17:04:13.613Z,14.63
2023-10-11T17:06:40.909Z,14.95
2023-10-11T17:09:08.709Z,14.93
2023-10-11T17:11:35.805Z,14.90
2023-10-11T17:14:02.762Z,15.13
2023-10-11T17:16:29.808Z,15.32
2023-10-11T17:18:56.857Z,15.30
2023-10-11T17:21:23.840Z,14.82
2023-10-11T17:23:52.114Z,15.55
2023-10-11T17:26:19.091Z,15.40
2023-10-11T17:28:46.316Z,15.70
2023-10-11T17:31:14.740Z,15.43
2023-10-11T17:33:45.382Z,15.52
2023-10-11T17:36:12.922Z,15.15
2023-10-11T17:38:40.615Z,15.02
2023-10-11T17:41:10.935Z,15.48
2023-10-11T17:43:39.388Z,15.50
2023-10-11T17:46:10.966Z,15.60
2023-10-11T17:48:39.958Z,15.73
2023-10-11T17:51:08.391Z,15.55
2023-10-11T17:53:41.609Z,15.45
2023-10-11T17:56:08.989Z,15.60
2023-10-11T17:58:36.499Z,15.52
2023-10-11T18:01:06.387Z,15.70
2023-10-11T18:03:33.565Z,15.80
2023-10-11T18:06:02.104Z,15.55
2023-10-11T18:08:29.231Z,16.02
2023-10-11T18:11:00.109Z,15.55
2023-10-11T18:13:27.785Z,15.32
2023-10-11T18:15:54.896Z,15.82
2023-10-11T18:18:22.056Z,15.10
2023-10-11T18:20:52.207Z,15.50
2023-10-11T18:23:21.165Z,15.18
2023-10-11T18:25:49.258Z,15.18
2023-10-11T18:28:16.301Z,15.73
2023-10-11T18:30:43.545Z,15.68
2023-10-11T18:33:12.107Z,15.70
2023-10-11T18:35:43.176Z,15.85
2023-10-11T18:38:10.673Z,15.35
2023-10-11T18:40:37.667Z,15.45
2023-10-11T18:43:04.875Z,15.07
2023-10-11T18:45:32.739Z,14.95
2023-10-11T18:48:00.080Z,15.23
2023-10-11T18:50:27.144Z,15.85
2023-10-11T18:52:56.004Z,15.38
2023-10-11T18:55:23.789Z,15.52
2023-10-11T18:57:53.952Z,14.95
2023-10-11T19:00:24.924Z,15.23
2023-10-11T19:02:53.149Z,15.82
2023-10-11T19:05:21.657Z,16.00
2023-10-11T19:07:54.222Z,15.07
2023-10-11T19:10:21.762Z,15.65
2023-10-11T19:12:50.059Z,15.43
2023-10-11T19:15:18.732Z,15.68
2023-10-11T19:17:52.151Z,15.70
2023-10-11T19:20:20.410Z,15.45
2023-10-11T19:22:54.148Z,14.60
2023-10-11T19:25:24.493Z,15.30
2023-10-11T19:27:52.658Z,14.82
2023-10-11T19:30:24.378Z,15.20
2023-10-11T19:32:52.383Z,15.27
2023-10-11T19:35:25.337Z,15.07
2023-10-11T19:37:54.095Z,14.75
2023-10-11T19:40:25.801Z,15.07
2023-10-11T19:42:54.836Z,15.10
2023-10-11T19:45:24.598Z,14.65
2023-10-11T19:47:52.561Z,14.98
2023-10-11T19:50:20.850Z,14.05
2023-10-11T19:52:49.898Z,14.75
2023-10-11T19:55:19.249Z,14.35
2023-10-11T19:57:53.650Z,14.95
2023-10-11T20:00:23.734Z,15.20
2023-10-11T20:02:52.899Z,15.40
2023-10-11T20:05:20.757Z,14.90
2023-10-11T20:07:48.835Z,15.57
2023-10-11T20:10:16.383Z,16.17
2023-10-11T20:12:46.645Z,15.82
2023-10-11T20:15:16.180Z,15.25
2023-10-11T20:17:48.264Z,15.48
2023-10-11T20:20:17.180Z,15.55
2023-10-11T20:22:45.068Z,15.90
2023-10-11T20:25:15.212Z,15.45
2023-10-11T20:27:49.115Z,16.10
2023-10-11T20:30:18.226Z,16.20
2023-10-11T20:32:52.326Z,16.35
2023-10-11T20:37:57.076Z,16.77
2023-10-11T20:40:25.659Z,16.45
2023-10-11T20:42:57.573Z,16.00
2023-10-11T20:45:27.839Z,16.42
2023-10-11T20:47:56.879Z,16.00
2023-10-11T20:50:35.466Z,16.23
2023-10-11T20:53:03.141Z,16.02
2023-10-11T20:55:33.193Z,16.13
2023-10-11T20:58:16.056Z,15.80
2023-10-11T21:00:52.283Z,16.52
2023-10-11T21:03:23.316Z,15.63
2023-10-11T21:05:54.160Z,16.33
2023-10-11T21:08:27.201Z,15.82
2023-10-11T21:10:55.064Z,16.70
2023-10-11T21:13:26.653Z,17.02
2023-10-11T21:16:04.788Z,15.98
2023-10-11T21:18:36.861Z,15.32
2023-10-11T21:21:05.413Z,16.20
2023-10-11T21:23:33.677Z,15.90
2023-10-11T21:26:03.857Z,16.27
2023-10-11T21:28:32.053Z,16.38
2023-10-11T21:30:59.489Z,16.15
2023-10-11T21:33:29.656Z,16.02
2023-10-11T21:36:01.065Z,15.95
2023-10-11T21:38:28.009Z,16.35
2023-10-11T21:40:56.860Z,16.02
2023-10-11T21:43:23.987Z,15.98
2023-10-11T21:45:51.150Z,16.05
2023-10-11T21:48:18.767Z,16.10
2023-10-11T21:50:45.902Z,16.40
2023-10-11T21:53:13.447Z,16.45
2023-10-11T21:55:42.718Z,16.77
2023-10-11T21:58:10.589Z,15.82
2023-10-11T22:01:13.069Z,16.65
2023-10-11T22:03:42.366Z,16.10
2023-10-11T22:06:09.422Z,16.35
2023-10-11T22:08:36.721Z,16.67
2023-10-11T22:11:05.403Z,16.23
2023-10-11T22:13:35.435Z,16.80
2023-10-11T22:16:03.624Z,16.45
2023-10-11T22:18:31.066Z,16.15
2023-10-11T22:20:59.958Z,15.90
2023-10-11T22:23:31.069Z,15.95
2023-10-11T22:25:58.647Z,16.55
2023-10-11T22:28:26.168Z,16.27
2023-10-11T22:30:53.278Z,16.52
2023-10-11T22:33:24.081Z,15.82
2023-10-11T22:35:52.732Z,16.00
2023-10-11T22:38:23.034Z,15.85
2023-10-11T22:40:52.243Z,16.25
2023-10-11T22:43:29.904Z,15.30
2023-10-11T22:45:58.501Z,15.73
2023-10-11T22:48:26.229Z,16.27
2023-10-11T22:50:53.766Z,15.30
2023-10-11T22:53:24.714Z,15.30
2023-10-11T22:55:52.769Z,15.23
2023-10-11T22:58:20.548Z,15.32
2023-10-11T23:00:49.759Z,15.73
2023-10-11T23:03:19.100Z,15.65
2023-10-11T23:05:46.423Z,15.95
2023-10-11T23:08:14.637Z,15.73
2023-10-11T23:10:46.886Z,15.77
2023-10-11T23:13:17.231Z,15.75
2023-10-11T23:15:54.576Z,15.73
2023-10-11T23:18:31.913Z,16.10
2023-10-11T23:20:59.409Z,15.57
2023-10-11T23:23:30.978Z,15.75
2023-10-11T23:26:06.720Z,15.27
2023-10-11T23:28:39.313Z,16.20
2023-10-11T23:31:11.846Z,16.15
2023-10-11T23:33:50.880Z,15.88
2023-10-11T23:36:24.385Z,15.40
2023-10-11T23:39:01.552Z,16.05
2023-10-11T23:41:46.280Z,16.23
2023-10-11T23:44:21.461Z,15.65
2023-10-11T23:46:57.947Z,15.23
2023-10-11T23:52:13.451Z,16.33
2023-10-11T23:54:42.386Z,16.35
2023-10-11T23:57:28.358Z,16.20
2023-10-11T23:59:59.999Z,16.40
